Time;durP1;ratioP1;P1;durP2;ratioP2;P2;SDS_P1;SDS_P2;PMS_P1;PMS_P2;Temp;Humidity;BMP_temperature;BMP_pressure;BME280_temperature;BME280_humidity;BME280_pressure;Samples;Min_cycle;Max_cycle;Signal;HPM_P1;HPM_P2
2023/12/08 00:02:16;;;;;;;0.10;0.10;;;6.60;99.90;;;;;;5019842;28;20025;-83
2023/12/08 00:04:41;;;;;;;0.10;0.10;;;6.60;99.90;;;;;;5017999;28;20037;-84
2023/12/08 00:07:07;;;;;;;0.10;0.10;;;6.60;99.90;;;;;;5022057;28;20029;-84
2023/12/08 00:09:33;;;;;;;0.10;0.10;;;6.60;99.90;;;;;;5026007;28;20076;-84
2023/12/08 00:11:58;;;;;;;0.10;0.10;;;6.60;99.90;;;;;;5020989;28;20026;-82
2023/12/08 00:14:24;;;;;;;0.10;0.10;;;6.60;99.90;;;;;;5018713;28;20036;-83
2023/12/08 00:16:50;;;;;;;0.10;0.10;;;6.40;99.90;;;;;;5022223;28;20033;-84
2023/12/08 00:19:15;;;;;;;0.10;0.10;;;6.40;99.90;;;;;;5026659;28;20036;-84
2023/12/08 00:21:41;;;;;;;0.10;0.10;;;6.50;99.90;;;;;;5028526;28;20033;-82
2023/12/08 00:24:07;;;;;;;0.10;0.10;;;6.50;99.90;;;;;;5025280;28;20033;-83
2023/12/08 00:26:33;;;;;;;0.10;0.10;;;6.40;99.90;;;;;;5023968;28;20033;-83
2023/12/08 00:28:58;;;;;;;0.10;0.10;;;6.50;99.90;;;;;;5020364;28;20072;-84
2023/12/08 00:31:24;;;;;;;0.20;0.20;;;6.50;99.90;;;;;;5019727;28;20041;-83
2023/12/08 00:33:49;;;;;;;0.10;0.10;;;6.40;99.90;;;;;;5022728;28;20041;-84
2023/12/08 00:36:16;;;;;;;0.10;0.10;;;6.50;99.90;;;;;;5023118;28;20111;-83
2023/12/08 00:38:43;;;;;;;0.03;0.03;;;6.60;99.90;;;;;;5023208;28;20122;-83
2023/12/08 00:41:09;;;;;;;0.03;0.03;;;6.50;99.90;;;;;;5022538;28;20548;-83
2023/12/08 00:43:35;;;;;;;1.30;1.30;;;6.60;99.90;;;;;;5020759;28;20137;-82
2023/12/08 00:46:01;;;;;;;0.10;0.10;;;6.50;99.90;;;;;;5021137;28;20045;-81
2023/12/08 00:48:27;;;;;;;0.10;0.10;;;6.50;99.90;;;;;;5024056;28;20268;-83
2023/12/08 00:50:52;;;;;;;0.10;0.10;;;6.50;99.90;;;;;;5023954;28;20037;-83
2023/12/08 00:53:18;;;;;;;0.10;0.10;;;6.50;99.90;;;;;;5025104;28;20030;-82
2023/12/08 00:55:44;;;;;;;0.10;0.10;;;6.50;99.90;;;;;;5023510;28;20045;-81
2023/12/08 00:58:11;;;;;;;0.10;0.10;;;6.60;99.90;;;;;;5018714;28;20227;-82
2023/12/08 01:00:37;;;;;;;0.10;0.10;;;6.50;99.90;;;;;;5024316;28;20083;-83
2023/12/08 01:03:03;;;;;;;0.80;0.80;;;6.50;99.90;;;;;;5015657;28;20033;-82
2023/12/08 01:05:29;;;;;;;0.08;0.08;;;6.60;99.90;;;;;;5018167;28;20069;-83
2023/12/08 01:07:54;;;;;;;0.10;0.10;;;6.60;99.90;;;;;;5024437;28;20027;-83
2023/12/08 01:10:20;;;;;;;0.08;0.08;;;6.50;99.90;;;;;;5019222;28;20029;-84
2023/12/08 01:12:46;;;;;;;0.10;0.10;;;6.50;99.90;;;;;;5017692;28;20047;-82
2023/12/08 01:15:13;;;;;;;0.10;0.10;;;6.50;99.90;;;;;;5019881;28;20029;-85
2023/12/08 01:17:38;;;;;;;0.10;0.10;;;6.40;99.90;;;;;;5024080;28;20025;-85
2023/12/08 01:20:07;;;;;;;0.10;0.10;;;6.60;99.90;;;;;;5026835;28;20037;-84
2023/12/08 01:22:33;;;;;;;0.10;0.10;;;6.60;99.90;;;;;;5020920;28;20041;-85
2023/12/08 01:24:59;;;;;;;0.10;0.10;;;6.60;99.90;;;;;;5023043;28;20068;-84
2023/12/08 01:27:24;;;;;;;0.10;0.10;;;6.40;99.90;;;;;;5013508;28;20028;-83
2023/12/08 01:29:50;;;;;;;0.10;0.10;;;6.60;99.90;;;;;;5027945;28;20120;-83
2023/12/08 01:32:16;;;;;;;0.10;0.10;;;6.60;99.90;;;;;;5014492;28;20045;-83
2023/12/08 01:34:41;;;;;;;0.10;0.10;;;6.60;99.90;;;;;;5020859;28;20060;-82
2023/12/08 01:37:07;;;;;;;0.10;0.10;;;6.50;99.90;;;;;;5018128;28;20048;-83
2023/12/08 01:39:33;;;;;;;0.10;0.10;;;6.60;99.90;;;;;;5023884;28;20120;-82
2023/12/08 01:41:58;;;;;;;0.10;0.10;;;6.70;99.90;;;;;;5020817;28;20108;-82
2023/12/08 01:44:24;;;;;;;0.10;0.10;;;6.70;99.90;;;;;;5025726;28;20572;-83
2023/12/08 01:46:51;;;;;;;0.15;0.15;;;6.80;99.90;;;;;;5021747;28;20045;-86
2023/12/08 01:49:17;;;;;;;;;;;6.70;99.90;;;;;;5023934;28;20026;-85
2023/12/08 01:51:44;;;;;;;0.10;0.10;;;6.70;99.90;;;;;;5018735;28;19909;-83
2023/12/08 01:54:12;;;;;;;0.10;0.10;;;6.60;99.90;;;;;;5015514;28;20124;-84
2023/12/08 01:56:38;;;;;;;0.10;0.10;;;6.70;99.90;;;;;;5020855;28;20481;-82
2023/12/08 01:59:04;;;;;;;0.10;0.10;;;6.80;99.90;;;;;;5028638;28;20049;-83
2023/12/08 02:01:30;;;;;;;0.10;0.10;;;6.80;99.90;;;;;;5021405;28;20036;-83
2023/12/08 02:03:57;;;;;;;0.10;0.10;;;6.80;99.90;;;;;;5018927;28;20017;-81
2023/12/08 02:06:22;;;;;;;0.10;0.10;;;6.90;99.90;;;;;;5018613;28;20052;-83
2023/12/08 02:08:48;;;;;;;0.10;0.10;;;6.80;99.90;;;;;;5019959;28;20034;-82
2023/12/08 02:11:14;;;;;;;0.10;0.10;;;6.80;99.90;;;;;;5019197;28;20017;-82
2023/12/08 02:13:41;;;;;;;0.10;0.10;;;6.80;99.90;;;;;;5019771;28;20663;-82
2023/12/08 02:16:11;;;;;;;0.10;0.10;;;6.80;99.90;;;;;;5016402;28;20038;-83
2023/12/08 02:18:39;;;;;;;0.05;0.05;;;6.90;99.90;;;;;;5020515;28;20029;-82
2023/12/08 02:21:08;;;;;;;0.10;0.10;;;6.90;99.90;;;;;;5022650;28;20060;-83
2023/12/08 02:23:35;;;;;;;0.10;0.10;;;6.90;99.90;;;;;;5022584;28;20853;-83
2023/12/08 02:26:00;;;;;;;0.10;0.10;;;6.90;99.90;;;;;;5016844;28;20042;-83
2023/12/08 02:28:26;;;;;;;4.18;3.83;;;6.80;99.90;;;;;;5018776;28;20040;-82
2023/12/08 02:30:56;;;;;;;0.10;0.10;;;6.80;99.90;;;;;;5016005;28;20519;-82
2023/12/08 02:33:32;;;;;;;0.10;0.10;;;6.60;99.90;;;;;;5019108;28;20033;-82
2023/12/08 02:36:04;;;;;;;0.10;0.10;;;6.60;99.90;;;;;;5019657;28;20030;-83
2023/12/08 02:38:31;;;;;;;0.00;0.00;;;6.60;99.90;;;;;;5022835;28;20038;-82
2023/12/08 02:40:57;;;;;;;0.10;0.10;;;6.60;99.90;;;;;;5019647;28;20029;-82
2023/12/08 02:43:23;;;;;;;0.10;0.10;;;6.60;99.90;;;;;;5019606;28;20043;-82
2023/12/08 02:45:49;;;;;;;0.10;0.10;;;6.60;99.90;;;;;;5020588;28;20029;-83
2023/12/08 02:48:15;;;;;;;0.10;0.10;;;6.60;99.90;;;;;;5021965;28;20504;-83
2023/12/08 02:50:42;;;;;;;0.10;0.10;;;6.70;99.90;;;;;;5020318;28;20032;-82
2023/12/08 02:53:07;;;;;;;;;;;6.80;99.90;;;;;;5021961;28;20037;-81
2023/12/08 02:55:33;;;;;;;0.10;0.10;;;6.60;99.90;;;;;;5020394;28;20284;-81
2023/12/08 02:57:58;;;;;;;0.10;0.10;;;6.40;99.90;;;;;;5015698;28;20035;-85
2023/12/08 03:00:24;;;;;;;0.10;0.10;;;6.40;99.90;;;;;;5021406;28;20034;-83
2023/12/08 03:02:50;;;;;;;0.30;0.30;;;6.30;99.90;;;;;;5012880;28;20184;-83
2023/12/08 03:05:16;;;;;;;0.10;0.10;;;6.40;99.90;;;;;;5020749;28;20756;-83
2023/12/08 03:07:41;;;;;;;0.10;0.10;;;6.60;99.90;;;;;;5014247;28;20045;-83
2023/12/08 03:10:08;;;;;;;0.10;0.10;;;6.60;99.90;;;;;;5020356;28;20032;-82
2023/12/08 03:12:33;;;;;;;0.10;0.10;;;6.50;99.90;;;;;;5016498;28;20068;-81
2023/12/08 03:14:59;;;;;;;0.10;0.10;;;6.50;99.90;;;;;;5018287;28;20112;-81
2023/12/08 03:17:24;;;;;;;0.10;0.10;;;6.50;99.90;;;;;;5020444;28;20033;-81
2023/12/08 03:19:50;;;;;;;0.10;0.10;;;6.60;99.90;;;;;;5024748;28;20103;-81
2023/12/08 03:22:16;;;;;;;0.10;0.10;;;6.60;99.90;;;;;;5019669;28;20026;-81
2023/12/08 03:24:42;;;;;;;0.10;0.10;;;6.60;99.90;;;;;;5021957;28;20036;-81
2023/12/08 03:27:08;;;;;;;0.10;0.10;;;6.70;99.90;;;;;;5018821;28;20041;-81
2023/12/08 03:29:39;;;;;;;0.03;0.03;;;6.60;99.90;;;;;;5025778;28;20075;-81
2023/12/08 03:32:04;;;;;;;0.10;0.10;;;6.70;99.90;;;;;;5027917;28;20087;-81
2023/12/08 03:34:30;;;;;;;0.10;0.10;;;6.70;99.90;;;;;;5025934;28;20729;-81
2023/12/08 03:36:56;;;;;;;0.10;0.10;;;6.70;99.90;;;;;;5025698;28;20052;-82
2023/12/08 03:39:21;;;;;;;0.10;0.10;;;6.80;99.90;;;;;;5026770;28;20060;-81
2023/12/08 03:41:47;;;;;;;0.10;0.10;;;6.70;99.90;;;;;;5027206;28;20216;-82
2023/12/08 03:44:14;;;;;;;0.10;0.10;;;6.80;99.90;;;;;;5028421;28;20041;-82
2023/12/08 03:46:42;;;;;;;0.10;0.10;;;6.70;99.90;;;;;;5027911;28;20045;-82
2023/12/08 03:49:08;;;;;;;0.10;0.10;;;6.70;99.90;;;;;;5027480;28;20067;-81
2023/12/08 03:51:34;;;;;;;0.10;0.10;;;6.80;99.90;;;;;;5027942;28;20120;-82
2023/12/08 03:53:59;;;;;;;0.10;0.10;;;6.80;99.90;;;;;;5023189;28;20536;-83
2023/12/08 03:56:25;;;;;;;0.00;0.00;;;6.80;99.90;;;;;;5017687;28;20492;-83
2023/12/08 03:58:51;;;;;;;0.10;0.10;;;6.70;99.90;;;;;;5028232;28;20650;-83
2023/12/08 04:01:20;;;;;;;0.10;0.10;;;6.70;99.90;;;;;;5027072;28;20071;-83
2023/12/08 04:03:46;;;;;;;0.00;0.00;;;6.80;99.90;;;;;;5027742;28;20079;-81
2023/12/08 04:06:12;;;;;;;0.10;0.10;;;6.80;99.90;;;;;;5019390;28;20041;-84
2023/12/08 04:08:38;;;;;;;0.10;0.10;;;6.80;99.90;;;;;;5024883;28;20026;-81
2023/12/08 04:11:04;;;;;;;0.10;0.10;;;6.90;99.90;;;;;;5028571;28;20030;-81
2023/12/08 04:13:29;;;;;;;0.10;0.10;;;6.80;99.90;;;;;;5028629;28;20030;-81
2023/12/08 04:15:55;;;;;;;0.10;0.10;;;6.80;99.90;;;;;;5028261;28;20148;-80
2023/12/08 04:18:21;;;;;;;0.90;0.73;;;6.80;99.90;;;;;;5019657;28;20033;-81
2023/12/08 04:20:46;;;;;;;0.85;0.85;;;6.80;99.90;;;;;;5029607;28;20033;-81
2023/12/08 04:23:12;;;;;;;0.10;0.10;;;6.90;99.90;;;;;;5033253;28;20029;-81
2023/12/08 04:25:38;;;;;;;0.10;0.10;;;6.90;99.90;;;;;;5029472;28;20214;-80
2023/12/08 04:28:04;;;;;;;0.05;0.05;;;6.90;99.90;;;;;;5023623;28;20108;-81
2023/12/08 04:30:30;;;;;;;0.10;0.10;;;6.90;99.90;;;;;;5021772;28;20051;-82
2023/12/08 04:32:56;;;;;;;0.10;0.10;;;6.80;99.90;;;;;;5026376;28;20567;-81
2023/12/08 04:35:22;;;;;;;0.10;0.10;;;6.90;99.90;;;;;;5028151;28;20040;-81
2023/12/08 04:37:50;;;;;;;0.10;0.10;;;6.80;99.90;;;;;;5022755;28;20037;-81
2023/12/08 04:40:16;;;;;;;0.10;0.10;;;6.80;99.90;;;;;;5022515;28;20057;-81
2023/12/08 04:42:42;;;;;;;0.00;0.00;;;6.80;99.90;;;;;;5021478;28;20029;-81
2023/12/08 04:45:09;;;;;;;0.08;0.08;;;6.80;99.90;;;;;;5024580;28;20042;-82
2023/12/08 04:47:36;;;;;;;0.45;0.45;;;6.80;99.90;;;;;;5025337;28;20037;-82
2023/12/08 04:50:02;;;;;;;0.00;0.00;;;6.80;99.90;;;;;;5029851;28;20497;-80
2023/12/08 04:52:28;;;;;;;0.10;0.10;;;6.80;99.90;;;;;;5024497;28;20874;-81
2023/12/08 04:54:54;;;;;;;0.10;0.10;;;6.80;99.90;;;;;;5018866;28;20034;-82
2023/12/08 04:57:20;;;;;;;0.10;0.10;;;6.90;99.90;;;;;;5018196;28;20037;-84
2023/12/08 04:59:46;;;;;;;0.10;0.10;;;6.80;99.90;;;;;;5024504;28;20038;-83
2023/12/08 05:02:12;;;;;;;0.10;0.10;;;6.80;99.90;;;;;;5024865;28;20040;-83
2023/12/08 05:04:37;;;;;;;0.10;0.10;;;6.90;99.90;;;;;;5018783;28;20132;-82
2023/12/08 05:07:03;;;;;;;0.10;0.10;;;6.80;99.90;;;;;;5019366;28;20033;-82
2023/12/08 05:09:29;;;;;;;0.10;0.10;;;6.80;99.90;;;;;;5018930;28;20096;-83
2023/12/08 05:11:55;;;;;;;0.10;0.10;;;6.70;99.90;;;;;;5019546;28;20418;-82
2023/12/08 05:14:20;;;;;;;0.10;0.10;;;6.80;99.90;;;;;;5019866;28;20031;-83
2023/12/08 05:16:46;;;;;;;0.10;0.10;;;6.80;99.90;;;;;;5020476;28;20048;-83
2023/12/08 05:19:12;;;;;;;0.00;0.00;;;6.90;99.90;;;;;;5020493;28;20036;-83
2023/12/08 05:21:38;;;;;;;0.10;0.10;;;6.90;99.90;;;;;;5027443;28;20036;-83
2023/12/08 05:24:04;;;;;;;0.10;0.10;;;6.90;99.90;;;;;;5021486;28;20026;-81
2023/12/08 05:26:30;;;;;;;0.10;0.10;;;6.90;99.90;;;;;;5017514;28;20038;-83
2023/12/08 05:28:56;;;;;;;0.10;0.10;;;6.90;99.90;;;;;;5023669;28;20576;-83
2023/12/08 05:31:22;;;;;;;0.10;0.10;;;7.00;99.90;;;;;;5024656;28;20117;-83
2023/12/08 05:33:48;;;;;;;0.08;0.08;;;6.90;99.90;;;;;;5022780;28;20090;-82
2023/12/08 05:36:14;;;;;;;0.10;0.10;;;7.00;99.90;;;;;;5023307;28;20546;-82
2023/12/08 05:38:39;;;;;;;0.10;0.10;;;7.00;99.90;;;;;;5020304;28;20026;-81
2023/12/08 05:41:06;;;;;;;0.10;0.10;;;7.00;99.90;;;;;;5022816;28;20041;-82
2023/12/08 05:43:33;;;;;;;0.10;0.10;;;7.00;99.90;;;;;;5022194;28;20105;-80
2023/12/08 05:45:59;;;;;;;0.00;0.00;;;6.90;99.90;;;;;;5023121;28;20048;-82
2023/12/08 05:48:24;;;;;;;0.10;0.10;;;6.80;99.90;;;;;;5022680;28;20029;-81
2023/12/08 05:50:50;;;;;;;0.10;0.10;;;6.80;99.90;;;;;;5022486;28;20040;-81
2023/12/08 05:53:16;;;;;;;0.10;0.10;;;6.90;99.90;;;;;;5016683;28;20396;-81
2023/12/08 05:55:41;;;;;;;0.10;0.10;;;7.00;99.90;;;;;;5016970;28;20060;-80
2023/12/08 05:58:07;;;;;;;0.10;0.10;;;7.00;99.90;;;;;;5021068;28;20886;-81
2023/12/08 06:00:33;;;;;;;0.10;0.10;;;6.90;99.90;;;;;;5025396;28;20029;-81
2023/12/08 06:02:59;;;;;;;0.10;0.10;;;6.80;99.90;;;;;;5024543;28;20040;-81
2023/12/08 06:05:25;;;;;;;0.10;0.10;;;7.00;99.90;;;;;;5022879;28;20033;-81
2023/12/08 06:07:50;;;;;;;0.10;0.10;;;7.00;99.90;;;;;;5023302;28;20531;-82
2023/12/08 06:10:16;;;;;;;0.10;0.10;;;7.00;99.90;;;;;;5018409;28;20029;-82
2023/12/08 06:12:42;;;;;;;0.10;0.10;;;7.00;99.90;;;;;;5023135;28;20064;-83
2023/12/08 06:15:09;;;;;;;0.10;0.10;;;7.00;99.90;;;;;;5023173;28;20117;-82
2023/12/08 06:17:36;;;;;;;0.10;0.10;;;7.00;99.90;;;;;;5015361;28;20438;-83
2023/12/08 06:20:04;;;;;;;0.10;0.10;;;6.90;99.90;;;;;;5020408;28;20040;-83
2023/12/08 06:22:30;;;;;;;0.10;0.10;;;7.00;99.90;;;;;;5023334;28;20030;-82
2023/12/08 06:24:56;;;;;;;0.10;0.10;;;7.00;99.90;;;;;;5023094;28;20444;-81
2023/12/08 06:27:22;;;;;;;0.10;0.10;;;7.00;99.90;;;;;;5012834;28;20084;-81
2023/12/08 06:29:50;;;;;;;0.10;0.10;;;7.00;99.90;;;;;;5021409;28;20033;-82
2023/12/08 06:32:18;;;;;;;0.10;0.10;;;7.10;99.90;;;;;;5020384;28;20703;-84
2023/12/08 06:34:45;;;;;;;0.10;0.10;;;7.10;99.90;;;;;;5037024;28;20029;-80
2023/12/08 06:37:12;;;;;;;0.15;0.15;;;7.10;99.90;;;;;;5017148;28;20048;-80
2023/12/08 06:39:39;;;;;;;0.10;0.10;;;7.00;99.90;;;;;;5021881;28;20402;-81
2023/12/08 06:42:05;;;;;;;0.10;0.10;;;7.10;99.90;;;;;;5018974;28;20033;-80
2023/12/08 06:44:31;;;;;;;0.10;0.10;;;7.00;99.90;;;;;;5029202;28;20025;-80
2023/12/08 06:46:56;;;;;;;0.10;0.10;;;7.10;99.90;;;;;;5020092;28;20390;-80
2023/12/08 06:49:22;;;;;;;0.10;0.10;;;7.10;99.90;;;;;;5035051;28;20123;-81
2023/12/08 06:51:48;;;;;;;0.00;0.00;;;7.10;99.90;;;;;;5023316;28;20029;-81
2023/12/08 06:54:14;;;;;;;0.10;0.10;;;7.00;99.90;;;;;;5022780;28;20025;-79
2023/12/08 06:56:44;;;;;;;0.00;0.00;;;7.00;99.90;;;;;;5009818;28;20030;-80
2023/12/08 06:59:10;;;;;;;0.10;0.10;;;7.10;99.90;;;;;;5015237;28;20049;-79
2023/12/08 07:01:36;;;;;;;0.00;0.00;;;7.20;99.90;;;;;;5015646;28;20036;-81
2023/12/08 07:04:03;;;;;;;0.10;0.10;;;7.10;99.90;;;;;;5015425;28;20037;-83
2023/12/08 07:06:29;;;;;;;0.10;0.10;;;7.20;99.90;;;;;;5010943;28;20115;-81
2023/12/08 07:08:55;;;;;;;0.10;0.10;;;7.10;99.90;;;;;;5017805;28;20029;-80
2023/12/08 07:11:21;;;;;;;0.10;0.10;;;7.20;99.90;;;;;;5018211;28;20084;-80
2023/12/08 07:13:47;;;;;;;0.20;0.20;;;7.20;99.90;;;;;;5022743;28;20063;-80
2023/12/08 07:16:12;;;;;;;0.10;0.10;;;7.20;99.90;;;;;;5022645;28;20114;-81
2023/12/08 07:18:38;;;;;;;0.80;0.80;;;7.20;99.90;;;;;;5023183;28;20040;-81
2023/12/08 07:21:04;;;;;;;0.10;0.10;;;7.30;99.90;;;;;;5022543;28;20161;-80
2023/12/08 07:23:30;;;;;;;0.10;0.10;;;7.30;99.90;;;;;;5022223;28;20502;-80
2023/12/08 07:25:56;;;;;;;0.10;0.10;;;7.20;99.90;;;;;;5015832;28;20038;-80
2023/12/08 07:28:21;;;;;;;0.10;0.10;;;7.10;99.90;;;;;;5018262;28;20033;-80
2023/12/08 07:30:47;;;;;;;0.10;0.10;;;7.10;99.90;;;;;;5020975;28;20029;-82
2023/12/08 07:33:13;;;;;;;0.10;0.10;;;7.10;99.90;;;;;;5019561;28;20656;-81
2023/12/08 07:35:38;;;;;;;0.10;0.10;;;7.10;99.90;;;;;;5018862;28;20057;-81
2023/12/08 07:38:04;;;;;;;0.10;0.10;;;7.10;99.90;;;;;;5020295;28;20032;-81
2023/12/08 07:40:30;;;;;;;0.10;0.10;;;7.20;99.90;;;;;;5018816;28;20096;-81
2023/12/08 07:42:56;;;;;;;0.10;0.10;;;7.10;99.90;;;;;;5020604;28;20049;-81
2023/12/08 07:45:22;;;;;;;0.10;0.10;;;7.10;99.90;;;;;;5019405;28;20121;-82
2023/12/08 07:47:47;;;;;;;0.10;0.10;;;7.20;99.90;;;;;;5021845;28;20029;-81
2023/12/08 07:50:14;;;;;;;0.10;0.10;;;7.20;99.90;;;;;;5021861;28;20060;-81
2023/12/08 07:52:41;;;;;;;0.10;0.10;;;7.30;99.90;;;;;;5022773;28;20029;-81
2023/12/08 07:55:09;;;;;;;0.10;0.10;;;7.30;99.90;;;;;;5016115;28;20493;-81
2023/12/08 07:57:35;;;;;;;0.10;0.10;;;7.20;99.90;;;;;;5015301;28;20026;-81
2023/12/08 08:00:00;;;;;;;0.10;0.10;;;7.30;99.90;;;;;;5011279;28;20064;-81
2023/12/08 08:02:26;;;;;;;0.10;0.10;;;7.20;99.90;;;;;;5016738;28;20032;-81
2023/12/08 08:04:52;;;;;;;0.10;0.10;;;7.30;99.90;;;;;;5012462;28;20030;-82
2023/12/08 08:07:18;;;;;;;0.10;0.10;;;7.30;99.90;;;;;;5017239;28;20042;-81
2023/12/08 08:09:43;;;;;;;0.10;0.10;;;7.30;99.90;;;;;;5013702;28;20061;-81
2023/12/08 08:12:09;;;;;;;0.00;0.00;;;7.40;99.90;;;;;;5018026;28;20548;-81
2023/12/08 08:14:35;;;;;;;0.10;0.10;;;7.40;99.90;;;;;;5020480;28;20545;-81
2023/12/08 08:17:03;;;;;;;0.10;0.10;;;7.40;99.90;;;;;;5026058;28;20125;-81
2023/12/08 08:19:29;;;;;;;0.10;0.10;;;7.40;99.90;;;;;;5025552;28;20052;-81
2023/12/08 08:21:55;;;;;;;0.05;0.05;;;7.30;99.90;;;;;;5029743;28;20030;-81
2023/12/08 08:24:21;;;;;;;0.10;0.10;;;7.40;99.90;;;;;;5025729;28;20542;-81
2023/12/08 08:26:47;;;;;;;0.10;0.10;;;7.40;99.90;;;;;;5018305;28;20042;-81
2023/12/08 08:29:13;;;;;;;0.10;0.10;;;7.50;99.90;;;;;;5020084;28;20030;-81
2023/12/08 08:31:39;;;;;;;1.65;0.70;;;7.60;99.90;;;;;;5023069;28;20075;-81
2023/12/08 08:34:05;;;;;;;0.10;0.10;;;7.60;99.90;;;;;;5022986;28;20026;-81
2023/12/08 08:36:31;;;;;;;0.10;0.10;;;7.40;99.90;;;;;;5024079;28;20048;-81
2023/12/08 08:38:57;;;;;;;0.10;0.10;;;7.50;99.90;;;;;;5021333;28;20026;-81
2023/12/08 08:41:23;;;;;;;0.30;0.30;;;7.60;99.90;;;;;;5025242;28;20044;-81
2023/12/08 08:43:50;;;;;;;0.03;0.03;;;7.60;99.90;;;;;;5023495;28;20374;-81
2023/12/08 08:46:16;;;;;;;0.10;0.10;;;7.60;99.90;;;;;;5023835;28;20038;-81
2023/12/08 08:48:42;;;;;;;0.10;0.10;;;7.50;99.90;;;;;;5023421;28;20029;-81
2023/12/08 08:51:08;;;;;;;0.10;0.10;;;7.60;99.90;;;;;;5025154;28;20025;-81
2023/12/08 08:53:34;;;;;;;0.10;0.10;;;7.70;99.90;;;;;;5023522;28;20029;-81
2023/12/08 08:56:01;;;;;;;0.10;0.10;;;7.70;99.90;;;;;;5015387;28;20496;-81
2023/12/08 08:58:27;;;;;;;0.00;0.00;;;7.80;99.90;;;;;;5025383;28;20141;-80
2023/12/08 09:00:53;;;;;;;0.10;0.10;;;7.70;99.90;;;;;;5023479;28;20030;-81
2023/12/08 09:03:18;;;;;;;0.10;0.10;;;7.70;99.90;;;;;;5020861;28;20029;-81
2023/12/08 09:05:44;;;;;;;0.10;0.10;;;7.70;99.90;;;;;;5023470;28;20033;-81
2023/12/08 09:08:10;;;;;;;0.10;0.10;;;7.70;99.90;;;;;;5015731;28;20025;-81
2023/12/08 09:10:36;;;;;;;0.05;0.05;;;7.70;99.90;;;;;;5024256;28;20021;-80
2023/12/08 09:13:02;;;;;;;0.00;0.00;;;7.70;99.90;;;;;;5028170;28;20030;-81
2023/12/08 09:15:28;;;;;;;0.10;0.10;;;7.70;99.90;;;;;;5024932;28;20271;-82
2023/12/08 09:17:55;;;;;;;0.10;0.10;;;7.60;99.90;;;;;;5025070;28;20021;-81
2023/12/08 09:20:21;;;;;;;0.10;0.10;;;7.50;99.90;;;;;;5029461;28;20500;-81
2023/12/08 09:22:47;;;;;;;0.10;0.10;;;7.50;99.90;;;;;;5021543;28;20026;-81
2023/12/08 09:25:13;;;;;;;0.00;0.00;;;7.50;99.90;;;;;;5023339;28;20044;-81
2023/12/08 09:27:39;;;;;;;0.10;0.10;;;7.60;99.90;;;;;;5019407;28;20036;-81
2023/12/08 09:30:05;;;;;;;0.10;0.10;;;7.70;99.90;;;;;;5020235;28;20116;-81
2023/12/08 09:32:31;;;;;;;0.10;0.10;;;7.80;99.90;;;;;;5021494;28;20038;-81
2023/12/08 09:34:57;;;;;;;0.10;0.10;;;7.90;99.90;;;;;;5024010;28;20030;-81
2023/12/08 09:37:22;;;;;;;0.10;0.10;;;7.90;99.90;;;;;;5019573;28;20025;-81
2023/12/08 09:39:48;;;;;;;0.00;0.00;;;8.00;99.90;;;;;;5024473;28;20033;-81
2023/12/08 09:42:21;;;;;;;0.10;0.10;;;7.90;99.90;;;;;;5020803;28;20032;-81
2023/12/08 09:44:49;;;;;;;0.10;0.10;;;7.90;99.90;;;;;;5021605;28;20022;-81
2023/12/08 09:47:19;;;;;;;0.10;0.10;;;8.00;99.90;;;;;;5022151;28;20520;-81
2023/12/08 09:49:49;;;;;;;0.10;0.10;;;8.10;99.90;;;;;;5022415;28;20520;-81
2023/12/08 09:52:15;;;;;;;0.10;0.10;;;8.20;99.90;;;;;;5020053;28;20484;-81
2023/12/08 09:54:43;;;;;;;0.00;0.00;;;8.20;99.90;;;;;;5023624;28;20036;-81
2023/12/08 09:57:13;;;;;;;0.32;0.32;;;8.20;99.90;;;;;;5016145;28;20706;-81
2023/12/08 09:59:41;;;;;;;0.10;0.10;;;8.20;99.90;;;;;;5023495;28;20045;-81
2023/12/08 10:02:10;;;;;;;0.10;0.10;;;8.30;99.90;;;;;;5022107;28;20029;-81
2023/12/08 10:04:36;;;;;;;0.10;0.10;;;8.30;99.90;;;;;;5015297;28;20044;-81
2023/12/08 10:07:05;;;;;;;0.10;0.10;;;8.40;99.90;;;;;;5020185;28;20040;-81
2023/12/08 10:09:32;;;;;;;0.10;0.10;;;8.40;99.90;;;;;;5018735;28;20579;-80
2023/12/08 10:11:58;;;;;;;0.10;0.10;;;8.50;99.90;;;;;;5023056;28;20485;-81
2023/12/08 10:14:27;;;;;;;0.10;0.10;;;8.60;99.90;;;;;;5018812;28;20026;-81
2023/12/08 10:16:53;;;;;;;0.10;0.10;;;8.70;99.90;;;;;;5020517;28;20036;-81
2023/12/08 10:19:22;;;;;;;0.10;0.10;;;8.70;99.90;;;;;;5021575;28;20022;-81
2023/12/08 10:22:01;;;;;;;0.10;0.10;;;8.80;99.90;;;;;;5025191;28;20045;-81
2023/12/08 10:24:30;;;;;;;0.00;0.00;;;8.70;99.90;;;;;;5021776;28;20025;-81
2023/12/08 10:27:00;;;;;;;0.00;0.00;;;8.70;99.90;;;;;;5019911;28;20111;-81
2023/12/08 10:29:33;;;;;;;0.10;0.10;;;8.60;99.90;;;;;;5020096;28;20030;-81
2023/12/08 10:31:59;;;;;;;0.00;0.00;;;8.50;99.90;;;;;;5020566;28;20037;-81
2023/12/08 10:34:25;;;;;;;0.10;0.10;;;8.70;99.90;;;;;;5023727;28;20033;-81
2023/12/08 10:36:52;;;;;;;0.10;0.10;;;8.80;99.90;;;;;;5021442;28;20041;-81
2023/12/08 10:39:18;;;;;;;0.10;0.10;;;8.60;99.90;;;;;;5020574;28;20024;-81
2023/12/08 10:41:44;;;;;;;0.10;0.10;;;8.70;99.90;;;;;;5022480;28;20037;-81
2023/12/08 10:44:11;;;;;;;0.80;0.80;;;8.80;99.90;;;;;;5022384;28;20025;-81
2023/12/08 10:46:37;;;;;;;0.10;0.10;;;8.70;99.90;;;;;;5022786;28;20036;-81
2023/12/08 10:49:04;;;;;;;0.10;0.10;;;8.70;99.90;;;;;;5018956;28;20022;-81
2023/12/08 10:51:30;;;;;;;0.10;0.10;;;8.90;99.90;;;;;;5022205;28;20026;-81
2023/12/08 10:53:57;;;;;;;0.10;0.10;;;9.00;99.90;;;;;;5023539;28;20021;-82
2023/12/08 10:56:23;;;;;;;0.10;0.10;;;9.00;99.90;;;;;;5016946;28;20029;-81
2023/12/08 10:59:01;;;;;;;0.00;0.00;;;9.00;99.90;;;;;;5017630;28;20127;-81
2023/12/08 11:01:30;;;;;;;0.00;0.00;;;9.20;99.90;;;;;;5011298;28;20026;-81
2023/12/08 11:04:01;;;;;;;0.00;0.00;;;9.10;99.90;;;;;;5018404;28;20590;-81
2023/12/08 11:06:33;;;;;;;0.00;0.00;;;9.10;99.90;;;;;;5017965;28;20045;-81
2023/12/08 11:09:07;;;;;;;0.10;0.10;;;9.00;99.90;;;;;;5018978;28;20025;-81
2023/12/08 11:11:35;;;;;;;0.10;0.10;;;9.10;99.90;;;;;;5020654;28;20505;-81
2023/12/08 11:14:08;;;;;;;0.10;0.10;;;9.00;99.90;;;;;;5024156;28;20018;-81
2023/12/08 11:16:47;;;;;;;0.08;0.08;;;9.10;99.90;;;;;;5021517;28;20171;-81
2023/12/08 11:19:14;;;;;;;0.10;0.10;;;9.10;99.90;;;;;;5017429;28;20756;-81
2023/12/08 11:21:39;;;;;;;0.08;0.08;;;9.00;99.90;;;;;;5028316;28;20087;-81
2023/12/08 11:24:07;;;;;;;0.13;0.13;;;8.90;99.90;;;;;;5021985;28;20033;-81
2023/12/08 11:26:42;;;;;;;0.30;0.30;;;9.00;99.90;;;;;;5021581;28;20128;-81
2023/12/08 11:29:30;;;;;;;0.00;0.00;;;9.10;99.90;;;;;;5016097;28;20060;-81
2023/12/08 11:32:04;;;;;;;0.10;0.10;;;9.20;99.90;;;;;;5016615;28;20080;-81
2023/12/08 11:34:48;;;;;;;0.10;0.10;;;9.10;99.90;;;;;;5017727;28;20033;-82
2023/12/08 11:37:16;;;;;;;0.22;0.22;;;9.30;99.90;;;;;;5016467;28;20052;-81
2023/12/08 11:39:43;;;;;;;0.10;0.10;;;9.30;99.90;;;;;;5022260;28;20599;-81
2023/12/08 11:42:10;;;;;;;0.10;0.10;;;9.30;99.90;;;;;;5020798;28;20029;-81
2023/12/08 11:44:39;;;;;;;0.15;0.15;;;9.30;99.90;;;;;;5021669;28;20057;-81
2023/12/08 11:47:10;;;;;;;0.73;0.73;;;9.30;99.90;;;;;;5021613;28;20431;-81
2023/12/08 11:49:37;;;;;;;0.55;0.55;;;9.60;99.90;;;;;;5024802;28;20064;-82
2023/12/08 11:52:09;;;;;;;0.00;0.00;;;9.60;99.90;;;;;;5026187;28;20029;-82
2023/12/08 11:55:09;;;;;;;0.10;0.10;;;9.50;99.90;;;;;;5022751;28;20125;-81
2023/12/08 11:57:41;;;;;;;0.10;0.10;;;9.50;99.90;;;;;;5028043;28;20711;-81
2023/12/08 12:00:10;;;;;;;0.00;0.00;;;9.60;99.90;;;;;;5025691;28;20079;-81
2023/12/08 12:02:39;;;;;;;0.00;0.00;;;9.60;99.90;;;;;;5024782;28;20024;-82
2023/12/08 12:05:05;;;;;;;0.00;0.00;;;9.70;99.90;;;;;;5023055;28;20033;-81
2023/12/08 12:07:32;;;;;;;0.10;0.10;;;9.70;99.90;;;;;;5019494;28;20130;-81
2023/12/08 12:09:59;;;;;;;0.25;0.25;;;9.70;99.90;;;;;;5019861;28;20264;-81
2023/12/08 12:12:30;;;;;;;0.28;0.28;;;9.70;99.90;;;;;;5020954;28;20912;-81
2023/12/08 12:15:00;;;;;;;0.85;0.85;;;9.60;99.90;;;;;;5021266;28;20020;-81
2023/12/08 12:17:25;;;;;;;0.00;0.00;;;9.90;99.90;;;;;;5023967;28;20029;-81
2023/12/08 12:19:52;;;;;;;0.00;0.00;;;9.70;99.90;;;;;;5028022;28;20434;-81
2023/12/08 12:22:19;;;;;;;0.00;0.00;;;9.60;99.90;;;;;;5025482;28;20033;-81
2023/12/08 12:24:46;;;;;;;0.10;0.10;;;9.50;99.90;;;;;;5027186;28;20026;-81
2023/12/08 12:27:12;;;;;;;0.15;0.15;;;9.50;99.90;;;;;;5015890;28;20045;-80
2023/12/08 12:29:37;;;;;;;0.10;0.10;;;9.40;99.90;;;;;;5019196;28;20029;-80
2023/12/08 12:32:07;;;;;;;0.65;0.65;;;9.30;99.90;;;;;;5022115;28;20091;-81
2023/12/08 12:34:33;;;;;;;0.13;0.13;;;9.30;99.90;;;;;;5025681;28;20500;-81
2023/12/08 12:36:59;;;;;;;0.00;0.00;;;9.30;99.90;;;;;;5022048;28;20036;-81
2023/12/08 12:39:25;;;;;;;0.00;0.00;;;9.20;99.90;;;;;;5023138;28;20031;-80
2023/12/08 12:41:56;;;;;;;0.00;0.00;;;9.20;99.90;;;;;;5025246;28;20025;-81
2023/12/08 12:44:22;;;;;;;0.10;0.10;;;9.40;99.90;;;;;;5023332;28;20033;-81
2023/12/08 12:46:47;;;;;;;0.10;0.10;;;9.40;99.90;;;;;;5023167;28;20051;-81
2023/12/08 12:49:15;;;;;;;0.05;0.05;;;9.20;99.90;;;;;;5024062;28;20104;-81
2023/12/08 12:51:42;;;;;;;0.00;0.00;;;9.00;99.90;;;;;;5029195;28;20033;-82
2023/12/08 12:54:08;;;;;;;0.10;0.10;;;8.90;99.90;;;;;;5023335;28;20128;-81
2023/12/08 12:56:35;;;;;;;0.00;0.00;;;8.70;99.90;;;;;;5010553;28;20588;-81